Main page
METAR-TAF:

METAR-TAF

Airports :

Cornwall Airport Newquay

Newquay Cornwall, England

latitude: 50-26N, longitude: 005-00W, elevation: 119 m

Current weather observation

The report was made 39 minutes ago, at 22:20 UTC
Wind 8 kt from the East/Southeast
Temperature 6°C
Humidity 93%
Pressure 992 hPa
Visibility 10 km or more

METAR: EGHQ 212220Z AUTO 12008KT 9999 FEW028/// 06/05 Q0992 REDZ

Time: 22:59 (22:59 UTC)

Forecast

The report was made 5 hours and 55 minutes ago, at 17:04 UTC
Forecast valid from 21 at 18 UTC to 21 at 22 UTC
Wind 8 kt from the South/Southeast
Visibility 10 km or more
Few clouds at a height of 1200 ft
Scattered clouds at a height of 2500 ft
Probability 30% :
Temporary
from 21 at 18 UTC to 21 at 22 UTC
Visibility: 4000 m
Broken clouds at a height of 1200 ft
Broken clouds at a height of 2200 ft, Cumulonimbus.
heavy rain showers

TAF: EGHQ 211704Z 2118/2122 16008KT 9999 FEW012 SCT025 PROB30 TEMPO 2118/2122 4000 +SHRA BKN012 BKN022CB

Weather observations and forecasts of more than 4000 airports (METAR and TAF reports).

The available stations are represented by yellow and red dots on the map.

Hover mouse over dot to see the name of the station.

Then click to see weather observations and forecasts.

To change the map : click on the green buttons with a black cross to zoom in, on the green button with a dash to zoom out, or on the green arrows for adjacent maps.


METAR-TAF: